sensor_id;sensor_type;location;lat;lon;timestamp;P1;durP1;ratioP1;P2;durP2;ratioP2
54263;SDS011;40178;53.042;6.406;2024-03-07T00:01:28;34.80;;;21.55;;
54263;SDS011;40178;53.042;6.406;2024-03-07T00:03:54;37.13;;;22.08;;
54263;SDS011;40178;53.042;6.406;2024-03-07T00:06:20;35.58;;;21.10;;
54263;SDS011;40178;53.042;6.406;2024-03-07T00:08:46;35.00;;;21.83;;
54263;SDS011;40178;53.042;6.406;2024-03-07T00:11:11;33.30;;;22.27;;
54263;SDS011;40178;53.042;6.406;2024-03-07T00:13:37;37.95;;;23.45;;
54263;SDS011;40178;53.042;6.406;2024-03-07T00:16:03;37.08;;;22.05;;
54263;SDS011;40178;53.042;6.406;2024-03-07T00:18:29;33.90;;;20.77;;
54263;SDS011;40178;53.042;6.406;2024-03-07T00:20:55;38.15;;;22.90;;
54263;SDS011;40178;53.042;6.406;2024-03-07T00:23:20;33.90;;;21.63;;
54263;SDS011;40178;53.042;6.406;2024-03-07T00:25:46;33.20;;;20.70;;
54263;SDS011;40178;53.042;6.406;2024-03-07T00:28:15;36.78;;;21.25;;
54263;SDS011;40178;53.042;6.406;2024-03-07T00:30:42;35.78;;;21.70;;
54263;SDS011;40178;53.042;6.406;2024-03-07T00:33:10;34.45;;;22.13;;
54263;SDS011;40178;53.042;6.406;2024-03-07T00:35:40;32.05;;;20.27;;
54263;SDS011;40178;53.042;6.406;2024-03-07T00:38:05;37.20;;;22.40;;
54263;SDS011;40178;53.042;6.406;2024-03-07T00:40:32;33.05;;;20.05;;
54263;SDS011;40178;53.042;6.406;2024-03-07T00:42:57;32.55;;;21.33;;
54263;SDS011;40178;53.042;6.406;2024-03-07T00:45:24;33.17;;;20.50;;
54263;SDS011;40178;53.042;6.406;2024-03-07T00:47:50;32.90;;;20.45;;
54263;SDS011;40178;53.042;6.406;2024-03-07T00:50:15;32.53;;;19.77;;
54263;SDS011;40178;53.042;6.406;2024-03-07T00:52:41;33.38;;;19.02;;
54263;SDS011;40178;53.042;6.406;2024-03-07T00:55:07;31.27;;;18.95;;
54263;SDS011;40178;53.042;6.406;2024-03-07T00:57:36;28.88;;;19.15;;
54263;SDS011;40178;53.042;6.406;2024-03-07T01:00:02;31.58;;;20.23;;
54263;SDS011;40178;53.042;6.406;2024-03-07T01:02:29;30.13;;;18.55;;
54263;SDS011;40178;53.042;6.406;2024-03-07T01:04:55;28.98;;;17.90;;
54263;SDS011;40178;53.042;6.406;2024-03-07T01:07:20;28.90;;;19.33;;
54263;SDS011;40178;53.042;6.406;2024-03-07T01:09:48;31.27;;;19.17;;
54263;SDS011;40178;53.042;6.406;2024-03-07T01:12:14;29.48;;;19.10;;
54263;SDS011;40178;53.042;6.406;2024-03-07T01:14:40;32.70;;;18.60;;
54263;SDS011;40178;53.042;6.406;2024-03-07T01:17:06;28.52;;;17.92;;
54263;SDS011;40178;53.042;6.406;2024-03-07T01:19:33;32.10;;;18.30;;
54263;SDS011;40178;53.042;6.406;2024-03-07T01:21:59;30.52;;;19.13;;
54263;SDS011;40178;53.042;6.406;2024-03-07T01:24:24;31.98;;;18.95;;
54263;SDS011;40178;53.042;6.406;2024-03-07T01:26:51;28.77;;;16.92;;
54263;SDS011;40178;53.042;6.406;2024-03-07T01:29:16;29.58;;;18.38;;
54263;SDS011;40178;53.042;6.406;2024-03-07T01:31:42;26.73;;;17.45;;
54263;SDS011;40178;53.042;6.406;2024-03-07T01:34:08;27.83;;;17.30;;
54263;SDS011;40178;53.042;6.406;2024-03-07T01:36:34;29.27;;;17.25;;
54263;SDS011;40178;53.042;6.406;2024-03-07T01:39:00;29.23;;;17.95;;
54263;SDS011;40178;53.042;6.406;2024-03-07T01:41:26;29.95;;;18.65;;
54263;SDS011;40178;53.042;6.406;2024-03-07T01:43:52;30.15;;;17.60;;
54263;SDS011;40178;53.042;6.406;2024-03-07T01:46:17;28.65;;;17.60;;
54263;SDS011;40178;53.042;6.406;2024-03-07T01:48:44;29.42;;;16.92;;
54263;SDS011;40178;53.042;6.406;2024-03-07T01:51:11;28.17;;;17.30;;
54263;SDS011;40178;53.042;6.406;2024-03-07T01:53:38;30.90;;;18.27;;
54263;SDS011;40178;53.042;6.406;2024-03-07T01:56:04;29.77;;;17.90;;
54263;SDS011;40178;53.042;6.406;2024-03-07T01:58:30;29.52;;;17.58;;
54263;SDS011;40178;53.042;6.406;2024-03-07T02:00:57;33.08;;;18.38;;
54263;SDS011;40178;53.042;6.406;2024-03-07T02:03:23;26.92;;;17.83;;
54263;SDS011;40178;53.042;6.406;2024-03-07T02:05:49;29.85;;;17.83;;
54263;SDS011;40178;53.042;6.406;2024-03-07T02:08:15;30.92;;;18.20;;
54263;SDS011;40178;53.042;6.406;2024-03-07T02:10:41;28.67;;;17.75;;
54263;SDS011;40178;53.042;6.406;2024-03-07T02:13:07;28.15;;;17.52;;
54263;SDS011;40178;53.042;6.406;2024-03-07T02:15:33;29.58;;;17.98;;
54263;SDS011;40178;53.042;6.406;2024-03-07T02:17:59;32.05;;;18.20;;
54263;SDS011;40178;53.042;6.406;2024-03-07T02:20:25;32.20;;;18.92;;
54263;SDS011;40178;53.042;6.406;2024-03-07T02:22:53;33.95;;;18.45;;
54263;SDS011;40178;53.042;6.406;2024-03-07T02:25:19;31.35;;;19.80;;
54263;SDS011;40178;53.042;6.406;2024-03-07T02:27:46;32.72;;;17.95;;
54263;SDS011;40178;53.042;6.406;2024-03-07T02:30:11;29.48;;;18.20;;
54263;SDS011;40178;53.042;6.406;2024-03-07T02:32:37;32.33;;;18.05;;
54263;SDS011;40178;53.042;6.406;2024-03-07T02:35:06;30.13;;;19.05;;
54263;SDS011;40178;53.042;6.406;2024-03-07T02:37:33;29.25;;;17.48;;
54263;SDS011;40178;53.042;6.406;2024-03-07T02:39:59;30.27;;;17.67;;
54263;SDS011;40178;53.042;6.406;2024-03-07T02:42:25;26.63;;;17.23;;
54263;SDS011;40178;53.042;6.406;2024-03-07T02:44:50;30.80;;;17.58;;
54263;SDS011;40178;53.042;6.406;2024-03-07T02:47:18;27.80;;;17.70;;
54263;SDS011;40178;53.042;6.406;2024-03-07T02:49:43;29.10;;;17.90;;
54263;SDS011;40178;53.042;6.406;2024-03-07T02:52:09;29.20;;;17.40;;
54263;SDS011;40178;53.042;6.406;2024-03-07T02:54:35;28.90;;;17.40;;
54263;SDS011;40178;53.042;6.406;2024-03-07T02:57:01;26.92;;;17.30;;
54263;SDS011;40178;53.042;6.406;2024-03-07T02:59:27;29.17;;;18.67;;
54263;SDS011;40178;53.042;6.406;2024-03-07T03:01:52;33.53;;;18.67;;
54263;SDS011;40178;53.042;6.406;2024-03-07T03:04:18;27.65;;;18.10;;
54263;SDS011;40178;53.042;6.406;2024-03-07T03:06:44;27.35;;;17.50;;
54263;SDS011;40178;53.042;6.406;2024-03-07T03:09:11;29.20;;;17.98;;
54263;SDS011;40178;53.042;6.406;2024-03-07T03:11:42;30.13;;;18.25;;
54263;SDS011;40178;53.042;6.406;2024-03-07T03:14:08;30.77;;;19.20;;
54263;SDS011;40178;53.042;6.406;2024-03-07T03:16:36;29.55;;;17.80;;
54263;SDS011;40178;53.042;6.406;2024-03-07T03:19:01;29.58;;;18.13;;
54263;SDS011;40178;53.042;6.406;2024-03-07T03:21:27;32.42;;;19.23;;
54263;SDS011;40178;53.042;6.406;2024-03-07T03:23:52;33.45;;;19.38;;
54263;SDS011;40178;53.042;6.406;2024-03-07T03:26:20;28.90;;;18.10;;
54263;SDS011;40178;53.042;6.406;2024-03-07T03:28:46;27.35;;;18.02;;
54263;SDS011;40178;53.042;6.406;2024-03-07T03:31:12;29.75;;;17.45;;
54263;SDS011;40178;53.042;6.406;2024-03-07T03:33:39;30.52;;;18.60;;
54263;SDS011;40178;53.042;6.406;2024-03-07T03:36:06;29.55;;;17.83;;
54263;SDS011;40178;53.042;6.406;2024-03-07T03:38:32;29.67;;;18.35;;
54263;SDS011;40178;53.042;6.406;2024-03-07T03:40:57;29.55;;;17.98;;
54263;SDS011;40178;53.042;6.406;2024-03-07T03:43:23;27.67;;;17.38;;
54263;SDS011;40178;53.042;6.406;2024-03-07T03:45:49;24.38;;;15.88;;
54263;SDS011;40178;53.042;6.406;2024-03-07T03:48:14;27.15;;;16.60;;
54263;SDS011;40178;53.042;6.406;2024-03-07T03:50:40;27.00;;;16.70;;
54263;SDS011;40178;53.042;6.406;2024-03-07T03:53:06;30.98;;;19.48;;
54263;SDS011;40178;53.042;6.406;2024-03-07T03:55:33;29.45;;;18.02;;
54263;SDS011;40178;53.042;6.406;2024-03-07T03:57:59;25.95;;;16.95;;
54263;SDS011;40178;53.042;6.406;2024-03-07T04:00:25;26.55;;;17.42;;
54263;SDS011;40178;53.042;6.406;2024-03-07T04:02:51;28.25;;;16.58;;
54263;SDS011;40178;53.042;6.406;2024-03-07T04:05:17;28.20;;;17.02;;
54263;SDS011;40178;53.042;6.406;2024-03-07T04:07:44;28.83;;;16.52;;
54263;SDS011;40178;53.042;6.406;2024-03-07T04:10:10;28.15;;;17.13;;
54263;SDS011;40178;53.042;6.406;2024-03-07T04:12:37;30.98;;;18.25;;
54263;SDS011;40178;53.042;6.406;2024-03-07T04:15:07;27.55;;;16.17;;
54263;SDS011;40178;53.042;6.406;2024-03-07T04:17:33;27.45;;;16.88;;
54263;SDS011;40178;53.042;6.406;2024-03-07T04:20:00;29.80;;;16.50;;
54263;SDS011;40178;53.042;6.406;2024-03-07T04:22:26;26.33;;;16.65;;
54263;SDS011;40178;53.042;6.406;2024-03-07T04:24:52;26.08;;;15.98;;
54263;SDS011;40178;53.042;6.406;2024-03-07T04:27:21;28.27;;;17.77;;
54263;SDS011;40178;53.042;6.406;2024-03-07T04:29:47;31.15;;;17.38;;
54263;SDS011;40178;53.042;6.406;2024-03-07T04:32:13;30.40;;;17.10;;
54263;SDS011;40178;53.042;6.406;2024-03-07T04:34:38;26.33;;;16.60;;
54263;SDS011;40178;53.042;6.406;2024-03-07T04:37:04;28.73;;;17.50;;
54263;SDS011;40178;53.042;6.406;2024-03-07T04:39:30;31.55;;;17.85;;
54263;SDS011;40178;53.042;6.406;2024-03-07T04:41:59;28.38;;;17.50;;
54263;SDS011;40178;53.042;6.406;2024-03-07T04:44:26;34.92;;;17.58;;
54263;SDS011;40178;53.042;6.406;2024-03-07T04:46:54;27.80;;;16.95;;
54263;SDS011;40178;53.042;6.406;2024-03-07T04:49:24;28.35;;;16.55;;
54263;SDS011;40178;53.042;6.406;2024-03-07T04:51:51;25.10;;;16.02;;
54263;SDS011;40178;53.042;6.406;2024-03-07T04:54:20;26.58;;;16.95;;
54263;SDS011;40178;53.042;6.406;2024-03-07T04:56:47;26.42;;;16.55;;
54263;SDS011;40178;53.042;6.406;2024-03-07T04:59:14;25.98;;;16.25;;
54263;SDS011;40178;53.042;6.406;2024-03-07T05:01:41;25.17;;;15.75;;
54263;SDS011;40178;53.042;6.406;2024-03-07T05:04:08;27.17;;;16.70;;
54263;SDS011;40178;53.042;6.406;2024-03-07T05:06:34;26.75;;;17.13;;
54263;SDS011;40178;53.042;6.406;2024-03-07T05:09:00;28.73;;;16.98;;
54263;SDS011;40178;53.042;6.406;2024-03-07T05:11:30;26.80;;;16.33;;
54263;SDS011;40178;53.042;6.406;2024-03-07T05:13:56;25.33;;;16.38;;
54263;SDS011;40178;53.042;6.406;2024-03-07T05:16:25;25.67;;;16.52;;
54263;SDS011;40178;53.042;6.406;2024-03-07T05:18:51;26.50;;;16.50;;
54263;SDS011;40178;53.042;6.406;2024-03-07T05:21:18;23.58;;;15.20;;
54263;SDS011;40178;53.042;6.406;2024-03-07T05:23:59;25.77;;;16.33;;
54263;SDS011;40178;53.042;6.406;2024-03-07T05:26:26;25.73;;;16.48;;
54263;SDS011;40178;53.042;6.406;2024-03-07T05:28:52;26.25;;;16.15;;
54263;SDS011;40178;53.042;6.406;2024-03-07T05:31:19;28.63;;;18.50;;
54263;SDS011;40178;53.042;6.406;2024-03-07T05:33:46;27.08;;;16.58;;
54263;SDS011;40178;53.042;6.406;2024-03-07T05:36:12;25.35;;;15.65;;
54263;SDS011;40178;53.042;6.406;2024-03-07T05:38:40;26.02;;;17.15;;
54263;SDS011;40178;53.042;6.406;2024-03-07T05:41:08;26.63;;;16.50;;
54263;SDS011;40178;53.042;6.406;2024-03-07T05:43:36;25.77;;;17.13;;
54263;SDS011;40178;53.042;6.406;2024-03-07T05:46:02;29.27;;;16.95;;
54263;SDS011;40178;53.042;6.406;2024-03-07T05:48:28;28.65;;;17.42;;
54263;SDS011;40178;53.042;6.406;2024-03-07T05:50:54;27.52;;;17.92;;
54263;SDS011;40178;53.042;6.406;2024-03-07T05:53:19;28.35;;;17.17;;
54263;SDS011;40178;53.042;6.406;2024-03-07T05:55:45;30.40;;;17.92;;
54263;SDS011;40178;53.042;6.406;2024-03-07T05:58:11;29.83;;;18.35;;
54263;SDS011;40178;53.042;6.406;2024-03-07T06:00:37;31.42;;;18.70;;
54263;SDS011;40178;53.042;6.406;2024-03-07T06:03:05;28.38;;;17.95;;
54263;SDS011;40178;53.042;6.406;2024-03-07T06:05:30;29.15;;;17.60;;
54263;SDS011;40178;53.042;6.406;2024-03-07T06:07:56;29.38;;;17.67;;
54263;SDS011;40178;53.042;6.406;2024-03-07T06:10:22;27.20;;;17.65;;
54263;SDS011;40178;53.042;6.406;2024-03-07T06:12:52;31.67;;;18.98;;
54263;SDS011;40178;53.042;6.406;2024-03-07T06:15:18;31.00;;;18.92;;
54263;SDS011;40178;53.042;6.406;2024-03-07T06:17:43;29.45;;;19.30;;
54263;SDS011;40178;53.042;6.406;2024-03-07T06:20:12;30.88;;;18.55;;
54263;SDS011;40178;53.042;6.406;2024-03-07T06:22:50;32.33;;;19.40;;
54263;SDS011;40178;53.042;6.406;2024-03-07T06:25:17;31.10;;;19.27;;
54263;SDS011;40178;53.042;6.406;2024-03-07T06:27:58;28.27;;;18.75;;
54263;SDS011;40178;53.042;6.406;2024-03-07T06:30:24;29.15;;;18.98;;
54263;SDS011;40178;53.042;6.406;2024-03-07T06:32:51;28.90;;;18.55;;
54263;SDS011;40178;53.042;6.406;2024-03-07T06:35:16;32.33;;;18.90;;
54263;SDS011;40178;53.042;6.406;2024-03-07T06:37:44;33.20;;;19.35;;
54263;SDS011;40178;53.042;6.406;2024-03-07T06:40:10;30.52;;;19.17;;
54263;SDS011;40178;53.042;6.406;2024-03-07T06:42:36;30.08;;;19.17;;
54263;SDS011;40178;53.042;6.406;2024-03-07T06:45:02;32.80;;;20.17;;
54263;SDS011;40178;53.042;6.406;2024-03-07T06:47:29;33.95;;;20.02;;
54263;SDS011;40178;53.042;6.406;2024-03-07T06:49:54;31.92;;;20.48;;
54263;SDS011;40178;53.042;6.406;2024-03-07T06:52:21;30.70;;;19.00;;
54263;SDS011;40178;53.042;6.406;2024-03-07T06:54:47;34.80;;;21.23;;
54263;SDS011;40178;53.042;6.406;2024-03-07T06:57:12;33.75;;;20.83;;
54263;SDS011;40178;53.042;6.406;2024-03-07T06:59:38;36.45;;;21.48;;
54263;SDS011;40178;53.042;6.406;2024-03-07T07:02:03;33.83;;;20.17;;
54263;SDS011;40178;53.042;6.406;2024-03-07T07:04:29;36.15;;;20.63;;
54263;SDS011;40178;53.042;6.406;2024-03-07T07:07:06;37.50;;;21.38;;
54263;SDS011;40178;53.042;6.406;2024-03-07T07:09:36;36.65;;;22.48;;
54263;SDS011;40178;53.042;6.406;2024-03-07T07:12:01;41.20;;;24.45;;
54263;SDS011;40178;53.042;6.406;2024-03-07T07:14:27;43.00;;;23.55;;
54263;SDS011;40178;53.042;6.406;2024-03-07T07:16:53;40.70;;;23.33;;
54263;SDS011;40178;53.042;6.406;2024-03-07T07:19:19;44.30;;;25.42;;
54263;SDS011;40178;53.042;6.406;2024-03-07T07:21:44;47.10;;;27.17;;
54263;SDS011;40178;53.042;6.406;2024-03-07T07:24:12;54.22;;;29.52;;
54263;SDS011;40178;53.042;6.406;2024-03-07T07:26:37;60.83;;;31.83;;
54263;SDS011;40178;53.042;6.406;2024-03-07T07:29:04;65.95;;;34.03;;
54263;SDS011;40178;53.042;6.406;2024-03-07T07:31:30;60.05;;;33.40;;
54263;SDS011;40178;53.042;6.406;2024-03-07T07:33:57;68.20;;;34.70;;
54263;SDS011;40178;53.042;6.406;2024-03-07T07:36:23;62.10;;;34.95;;
54263;SDS011;40178;53.042;6.406;2024-03-07T07:38:48;62.22;;;33.53;;
54263;SDS011;40178;53.042;6.406;2024-03-07T07:41:14;74.13;;;35.08;;
54263;SDS011;40178;53.042;6.406;2024-03-07T07:43:40;69.38;;;35.85;;
54263;SDS011;40178;53.042;6.406;2024-03-07T07:46:06;63.25;;;34.53;;
54263;SDS011;40178;53.042;6.406;2024-03-07T07:48:32;68.90;;;34.95;;
54263;SDS011;40178;53.042;6.406;2024-03-07T07:50:59;66.80;;;35.15;;
54263;SDS011;40178;53.042;6.406;2024-03-07T07:53:24;70.57;;;37.17;;
54263;SDS011;40178;53.042;6.406;2024-03-07T07:55:50;70.53;;;35.58;;
54263;SDS011;40178;53.042;6.406;2024-03-07T07:58:16;68.45;;;35.42;;
54263;SDS011;40178;53.042;6.406;2024-03-07T08:00:41;72.97;;;34.83;;
54263;SDS011;40178;53.042;6.406;2024-03-07T08:03:09;70.78;;;34.80;;
54263;SDS011;40178;53.042;6.406;2024-03-07T08:05:36;82.65;;;35.63;;
54263;SDS011;40178;53.042;6.406;2024-03-07T08:08:03;71.80;;;33.63;;
54263;SDS011;40178;53.042;6.406;2024-03-07T08:10:31;75.40;;;35.88;;
54263;SDS011;40178;53.042;6.406;2024-03-07T08:12:58;67.75;;;33.83;;
54263;SDS011;40178;53.042;6.406;2024-03-07T08:15:25;82.68;;;34.72;;
54263;SDS011;40178;53.042;6.406;2024-03-07T08:17:53;69.95;;;34.70;;
54263;SDS011;40178;53.042;6.406;2024-03-07T08:20:23;73.90;;;33.13;;
54263;SDS011;40178;53.042;6.406;2024-03-07T08:22:50;73.97;;;34.20;;
54263;SDS011;40178;53.042;6.406;2024-03-07T08:25:18;74.63;;;33.80;;
54263;SDS011;40178;53.042;6.406;2024-03-07T08:27:48;70.30;;;32.83;;
54263;SDS011;40178;53.042;6.406;2024-03-07T08:30:14;89.03;;;34.15;;
54263;SDS011;40178;53.042;6.406;2024-03-07T08:32:44;74.22;;;35.20;;
54263;SDS011;40178;53.042;6.406;2024-03-07T08:35:11;76.30;;;34.17;;
54263;SDS011;40178;53.042;6.406;2024-03-07T08:37:41;74.85;;;33.15;;
54263;SDS011;40178;53.042;6.406;2024-03-07T08:40:08;68.85;;;34.63;;
54263;SDS011;40178;53.042;6.406;2024-03-07T08:42:38;80.65;;;36.10;;
54263;SDS011;40178;53.042;6.406;2024-03-07T08:45:06;84.38;;;34.78;;
54263;SDS011;40178;53.042;6.406;2024-03-07T08:47:35;75.20;;;32.38;;
54263;SDS011;40178;53.042;6.406;2024-03-07T08:50:02;85.70;;;36.92;;
54263;SDS011;40178;53.042;6.406;2024-03-07T08:52:33;73.15;;;35.90;;
54263;SDS011;40178;53.042;6.406;2024-03-07T08:55:04;71.03;;;34.33;;
54263;SDS011;40178;53.042;6.406;2024-03-07T08:57:31;61.63;;;31.50;;
54263;SDS011;40178;53.042;6.406;2024-03-07T08:59:56;58.08;;;30.88;;
54263;SDS011;40178;53.042;6.406;2024-03-07T09:02:22;61.83;;;28.67;;
54263;SDS011;40178;53.042;6.406;2024-03-07T09:04:48;61.17;;;30.88;;
54263;SDS011;40178;53.042;6.406;2024-03-07T09:07:14;59.22;;;30.38;;
54263;SDS011;40178;53.042;6.406;2024-03-07T09:09:40;55.55;;;28.58;;
54263;SDS011;40178;53.042;6.406;2024-03-07T09:12:10;60.00;;;32.30;;
54263;SDS011;40178;53.042;6.406;2024-03-07T09:14:36;53.63;;;29.00;;
54263;SDS011;40178;53.042;6.406;2024-03-07T09:17:03;59.63;;;29.52;;
54263;SDS011;40178;53.042;6.406;2024-03-07T09:19:32;58.20;;;28.23;;
54263;SDS011;40178;53.042;6.406;2024-03-07T09:21:57;55.13;;;27.05;;
54263;SDS011;40178;53.042;6.406;2024-03-07T09:24:23;60.78;;;29.05;;
54263;SDS011;40178;53.042;6.406;2024-03-07T09:26:49;54.83;;;28.17;;
54263;SDS011;40178;53.042;6.406;2024-03-07T09:29:16;48.53;;;24.75;;
54263;SDS011;40178;53.042;6.406;2024-03-07T09:31:43;41.53;;;24.17;;
54263;SDS011;40178;53.042;6.406;2024-03-07T09:34:12;39.92;;;21.13;;
54263;SDS011;40178;53.042;6.406;2024-03-07T09:36:39;37.55;;;20.63;;
54263;SDS011;40178;53.042;6.406;2024-03-07T09:39:07;38.88;;;22.55;;
54263;SDS011;40178;53.042;6.406;2024-03-07T09:41:33;37.88;;;20.77;;
54263;SDS011;40178;53.042;6.406;2024-03-07T09:43:59;37.75;;;21.60;;
54263;SDS011;40178;53.042;6.406;2024-03-07T09:46:26;39.50;;;22.33;;
54263;SDS011;40178;53.042;6.406;2024-03-07T09:48:52;38.80;;;20.83;;
54263;SDS011;40178;53.042;6.406;2024-03-07T09:51:22;34.50;;;20.40;;
54263;SDS011;40178;53.042;6.406;2024-03-07T09:53:51;38.92;;;20.85;;
54263;SDS011;40178;53.042;6.406;2024-03-07T09:56:21;37.92;;;21.17;;
54263;SDS011;40178;53.042;6.406;2024-03-07T09:58:48;41.80;;;22.67;;
54263;SDS011;40178;53.042;6.406;2024-03-07T10:01:18;35.75;;;19.95;;
54263;SDS011;40178;53.042;6.406;2024-03-07T10:03:46;39.60;;;21.50;;
54263;SDS011;40178;53.042;6.406;2024-03-07T10:06:13;40.63;;;23.65;;
54263;SDS011;40178;53.042;6.406;2024-03-07T10:08:40;36.50;;;22.02;;
54263;SDS011;40178;53.042;6.406;2024-03-07T10:11:07;41.42;;;20.98;;
54263;SDS011;40178;53.042;6.406;2024-03-07T10:13:34;40.58;;;22.45;;
54263;SDS011;40178;53.042;6.406;2024-03-07T10:16:00;41.13;;;21.40;;
54263;SDS011;40178;53.042;6.406;2024-03-07T10:18:27;38.45;;;21.77;;
54263;SDS011;40178;53.042;6.406;2024-03-07T10:20:53;35.42;;;19.73;;
54263;SDS011;40178;53.042;6.406;2024-03-07T10:23:20;40.20;;;20.92;;
54263;SDS011;40178;53.042;6.406;2024-03-07T10:25:46;40.47;;;21.02;;
54263;SDS011;40178;53.042;6.406;2024-03-07T10:28:12;40.35;;;20.58;;
54263;SDS011;40178;53.042;6.406;2024-03-07T10:30:42;37.40;;;20.42;;
54263;SDS011;40178;53.042;6.406;2024-03-07T10:33:12;36.13;;;19.50;;
54263;SDS011;40178;53.042;6.406;2024-03-07T10:35:38;34.42;;;19.98;;
54263;SDS011;40178;53.042;6.406;2024-03-07T10:38:04;34.85;;;19.48;;
54263;SDS011;40178;53.042;6.406;2024-03-07T10:40:36;37.97;;;20.15;;
54263;SDS011;40178;53.042;6.406;2024-03-07T10:43:07;35.75;;;18.85;;
54263;SDS011;40178;53.042;6.406;2024-03-07T10:45:37;37.90;;;19.83;;
54263;SDS011;40178;53.042;6.406;2024-03-07T10:48:11;37.90;;;19.52;;
54263;SDS011;40178;53.042;6.406;2024-03-07T10:50:49;33.22;;;18.73;;
54263;SDS011;40178;53.042;6.406;2024-03-07T10:58:58;34.83;;;18.85;;
54263;SDS011;40178;53.042;6.406;2024-03-07T11:01:30;32.22;;;18.50;;
54263;SDS011;40178;53.042;6.406;2024-03-07T11:03:59;34.78;;;18.85;;
54263;SDS011;40178;53.042;6.406;2024-03-07T11:06:25;32.45;;;17.58;;
54263;SDS011;40178;53.042;6.406;2024-03-07T11:08:51;33.58;;;17.95;;
54263;SDS011;40178;53.042;6.406;2024-03-07T11:11:18;35.55;;;18.65;;
54263;SDS011;40178;53.042;6.406;2024-03-07T11:13:44;32.13;;;17.92;;
54263;SDS011;40178;53.042;6.406;2024-03-07T11:16:11;34.20;;;19.27;;
54263;SDS011;40178;53.042;6.406;2024-03-07T11:18:39;29.70;;;17.45;;
54263;SDS011;40178;53.042;6.406;2024-03-07T11:21:05;31.25;;;18.20;;
54263;SDS011;40178;53.042;6.406;2024-03-07T11:23:32;35.13;;;18.38;;
54263;SDS011;40178;53.042;6.406;2024-03-07T11:28:33;32.30;;;18.65;;
54263;SDS011;40178;53.042;6.406;2024-03-07T11:31:09;31.85;;;19.33;;
54263;SDS011;40178;53.042;6.406;2024-03-07T11:33:38;28.33;;;17.50;;
54263;SDS011;40178;53.042;6.406;2024-03-07T11:36:08;30.58;;;18.00;;
54263;SDS011;40178;53.042;6.406;2024-03-07T11:38:44;32.20;;;16.95;;
54263;SDS011;40178;53.042;6.406;2024-03-07T11:41:13;30.70;;;17.33;;
54263;SDS011;40178;53.042;6.406;2024-03-07T11:43:42;30.02;;;18.02;;
54263;SDS011;40178;53.042;6.406;2024-03-07T11:46:08;30.92;;;17.45;;
54263;SDS011;40178;53.042;6.406;2024-03-07T11:48:40;29.92;;;17.83;;
54263;SDS011;40178;53.042;6.406;2024-03-07T11:51:12;31.30;;;16.98;;
54263;SDS011;40178;53.042;6.406;2024-03-07T11:53:38;29.80;;;17.42;;
54263;SDS011;40178;53.042;6.406;2024-03-07T11:56:05;32.10;;;18.48;;
54263;SDS011;40178;53.042;6.406;2024-03-07T11:58:41;28.98;;;17.38;;
54263;SDS011;40178;53.042;6.406;2024-03-07T12:01:09;32.38;;;17.25;;
54263;SDS011;40178;53.042;6.406;2024-03-07T12:03:36;34.40;;;17.95;;
54263;SDS011;40178;53.042;6.406;2024-03-07T12:06:02;31.20;;;17.27;;
54263;SDS011;40178;53.042;6.406;2024-03-07T12:08:28;33.17;;;17.63;;
54263;SDS011;40178;53.042;6.406;2024-03-07T12:10:55;33.38;;;16.30;;
54263;SDS011;40178;53.042;6.406;2024-03-07T12:13:21;31.80;;;17.00;;
54263;SDS011;40178;53.042;6.406;2024-03-07T12:15:47;32.22;;;17.02;;
54263;SDS011;40178;53.042;6.406;2024-03-07T12:18:16;34.47;;;18.38;;
54263;SDS011;40178;53.042;6.406;2024-03-07T12:20:44;31.38;;;17.98;;
54263;SDS011;40178;53.042;6.406;2024-03-07T12:23:16;28.77;;;15.75;;
54263;SDS011;40178;53.042;6.406;2024-03-07T12:25:44;33.63;;;17.30;;
54263;SDS011;40178;53.042;6.406;2024-03-07T12:28:13;32.53;;;18.15;;
54263;SDS011;40178;53.042;6.406;2024-03-07T12:33:11;26.73;;;16.83;;
54263;SDS011;40178;53.042;6.406;2024-03-07T12:35:42;27.80;;;16.20;;
54263;SDS011;40178;53.042;6.406;2024-03-07T12:38:11;27.38;;;15.15;;
54263;SDS011;40178;53.042;6.406;2024-03-07T12:40:40;27.05;;;15.23;;
54263;SDS011;40178;53.042;6.406;2024-03-07T12:43:19;28.08;;;15.88;;
54263;SDS011;40178;53.042;6.406;2024-03-07T12:45:49;27.95;;;16.55;;
54263;SDS011;40178;53.042;6.406;2024-03-07T12:48:23;27.25;;;15.35;;
54263;SDS011;40178;53.042;6.406;2024-03-07T12:50:49;29.55;;;16.48;;
54263;SDS011;40178;53.042;6.406;2024-03-07T12:53:22;27.20;;;14.77;;
54263;SDS011;40178;53.042;6.406;2024-03-07T12:55:49;26.00;;;15.50;;
54263;SDS011;40178;53.042;6.406;2024-03-07T12:58:14;26.20;;;14.32;;
54263;SDS011;40178;53.042;6.406;2024-03-07T13:00:41;25.58;;;15.75;;
54263;SDS011;40178;53.042;6.406;2024-03-07T13:03:09;27.83;;;15.30;;
54263;SDS011;40178;53.042;6.406;2024-03-07T13:05:35;26.90;;;15.25;;
54263;SDS011;40178;53.042;6.406;2024-03-07T13:08:06;27.65;;;15.20;;
54263;SDS011;40178;53.042;6.406;2024-03-07T13:10:41;23.55;;;13.93;;
54263;SDS011;40178;53.042;6.406;2024-03-07T13:13:07;23.92;;;15.25;;
54263;SDS011;40178;53.042;6.406;2024-03-07T13:15:39;22.92;;;14.63;;
54263;SDS011;40178;53.042;6.406;2024-03-07T13:18:07;27.85;;;15.70;;
54263;SDS011;40178;53.042;6.406;2024-03-07T13:20:34;28.05;;;14.75;;
54263;SDS011;40178;53.042;6.406;2024-03-07T13:23:00;30.20;;;16.80;;
54263;SDS011;40178;53.042;6.406;2024-03-07T13:25:26;28.10;;;15.45;;
54263;SDS011;40178;53.042;6.406;2024-03-07T13:30:21;27.83;;;15.68;;
54263;SDS011;40178;53.042;6.406;2024-03-07T13:32:55;26.92;;;17.67;;
54263;SDS011;40178;53.042;6.406;2024-03-07T13:35:22;28.55;;;16.38;;
54263;SDS011;40178;53.042;6.406;2024-03-07T13:37:49;26.33;;;14.60;;
54263;SDS011;40178;53.042;6.406;2024-03-07T13:40:15;23.67;;;15.10;;
54263;SDS011;40178;53.042;6.406;2024-03-07T13:42:57;27.48;;;16.63;;
54263;SDS011;40178;53.042;6.406;2024-03-07T13:45:24;29.25;;;17.48;;
54263;SDS011;40178;53.042;6.406;2024-03-07T13:47:56;28.35;;;15.43;;
54263;SDS011;40178;53.042;6.406;2024-03-07T13:50:24;28.70;;;15.95;;
54263;SDS011;40178;53.042;6.406;2024-03-07T13:52:53;28.80;;;16.38;;
54263;SDS011;40178;53.042;6.406;2024-03-07T13:55:52;26.58;;;15.85;;
54263;SDS011;40178;53.042;6.406;2024-03-07T14:09:26;26.42;;;15.13;;
54263;SDS011;40178;53.042;6.406;2024-03-07T14:26:48;28.52;;;14.95;;
54263;SDS011;40178;53.042;6.406;2024-03-07T14:32:09;23.52;;;14.68;;
54263;SDS011;40178;53.042;6.406;2024-03-07T14:34:45;24.40;;;14.23;;
54263;SDS011;40178;53.042;6.406;2024-03-07T14:40:38;22.58;;;14.50;;
54263;SDS011;40178;53.042;6.406;2024-03-07T14:43:04;24.48;;;14.32;;
54263;SDS011;40178;53.042;6.406;2024-03-07T14:45:39;25.30;;;14.23;;
54263;SDS011;40178;53.042;6.406;2024-03-07T14:48:06;23.08;;;13.48;;
54263;SDS011;40178;53.042;6.406;2024-03-07T14:50:37;26.73;;;14.70;;
54263;SDS011;40178;53.042;6.406;2024-03-07T14:53:06;24.48;;;14.95;;
54263;SDS011;40178;53.042;6.406;2024-03-07T14:55:32;24.17;;;14.40;;
54263;SDS011;40178;53.042;6.406;2024-03-07T14:57:59;27.40;;;14.75;;
54263;SDS011;40178;53.042;6.406;2024-03-07T15:00:25;28.73;;;15.68;;
54263;SDS011;40178;53.042;6.406;2024-03-07T15:02:54;26.52;;;15.48;;
54263;SDS011;40178;53.042;6.406;2024-03-07T15:05:24;26.52;;;14.85;;
54263;SDS011;40178;53.042;6.406;2024-03-07T15:07:50;22.40;;;14.02;;